Time;durP1;ratioP1;P1;durP2;ratioP2;P2;SDS_P1;SDS_P2;PMS_P1;PMS_P2;Temp;Humidity;BMP_temperature;BMP_pressure;BME280_temperature;BME280_humidity;BME280_pressure;Samples;Min_cycle;Max_cycle;Signal;HPM_P1;HPM_P2
2023/08/01 00:04:34;;;;;;;;;;;;;;;16.76;100.00;99794.69;10460714;28;19932;-73
2023/08/01 00:09:36;;;;;;;;;;;;;;;16.82;100.00;99807.31;10460177;28;19946;-72
2023/08/01 00:14:38;;;;;;;;;;;;;;;16.55;100.00;99797.66;10460408;28;19954;-73
2023/08/01 00:19:41;;;;;;;;;;;;;;;16.48;100.00;99802.72;10460011;28;19947;-73
2023/08/01 00:24:43;;;;;;;;;;;;;;;16.58;100.00;99800.00;10442372;28;19931;-72
2023/08/01 00:29:45;;;;;;;;;;;;;;;16.68;100.00;99784.91;10459498;28;20390;-73
2023/08/01 00:34:49;;;;;;;;;;;;;;;16.55;100.00;99776.53;10441999;28;19925;-73
2023/08/01 00:39:52;;;;;;;;;;;;;;;16.61;100.00;99774.13;10441554;28;19929;-73
2023/08/01 00:44:54;;;;;;;;;;;;;;;16.64;100.00;99768.53;10441433;28;19932;-73
2023/08/01 00:49:56;;;;;;;;;;;;;;;16.39;100.00;99777.19;10459060;28;19931;-73
2023/08/01 00:54:58;;;;;;;;;;;;;;;16.45;100.00;99768.69;10458763;28;19924;-73
2023/08/01 01:00:01;;;;;;;;;;;;;;;16.53;100.00;99756.38;10440667;28;19925;-73
2023/08/01 01:05:03;;;;;;;;;;;;;;;16.59;100.00;99765.47;10458185;28;19935;-74
2023/08/01 01:10:05;;;;;;;;;;;;;;;16.60;100.00;99746.00;10440279;28;20279;-74
2023/08/01 01:15:08;;;;;;;;;;;;;;;16.60;100.00;99747.84;10458181;28;19932;-74
2023/08/01 01:20:10;;;;;;;;;;;;;;;16.46;100.00;99751.84;10457814;28;19925;-74
2023/08/01 01:25:13;;;;;;;;;;;;;;;16.56;100.00;99746.47;10457807;28;19931;-74
2023/08/01 01:30:15;;;;;;;;;;;;;;;16.58;100.00;99752.44;10439688;28;19925;-73
2023/08/01 01:35:17;;;;;;;;;;;;;;;16.44;100.00;99759.94;10439574;28;20352;-73
2023/08/01 01:40:19;;;;;;;;;;;;;;;16.55;100.00;99755.41;10457199;28;20380;-73
2023/08/01 01:45:22;;;;;;;;;;;;;;;16.20;100.00;99759.69;10457081;28;20011;-72
2023/08/01 01:50:24;;;;;;;;;;;;;;;16.29;100.00;99753.47;10439424;28;19925;-73
2023/08/01 01:55:26;;;;;;;;;;;;;;;15.93;100.00;99749.00;10439273;28;20390;-72
2023/08/01 02:00:29;;;;;;;;;;;;;;;15.98;100.00;99745.94;10456531;28;19952;-72
2023/08/01 02:05:31;;;;;;;;;;;;;;;16.18;100.00;99740.53;10439083;28;19971;-73
2023/08/01 02:10:34;;;;;;;;;;;;;;;16.42;100.00;99727.53;10456390;28;20291;-73
2023/08/01 02:15:36;;;;;;;;;;;;;;;16.16;100.00;99724.81;10459848;28;19925;-72
2023/08/01 02:20:38;;;;;;;;;;;;;;;15.94;100.00;99734.84;10447033;28;19924;-72
2023/08/01 02:25:41;;;;;;;;;;;;;;;16.07;100.00;99731.84;10447080;28;20003;-73
2023/08/01 02:30:43;;;;;;;;;;;;;;;15.94;100.00;99732.19;10464383;28;19925;-72
2023/08/01 02:35:46;;;;;;;;;;;;;;;16.01;100.00;99742.16;10446294;28;19931;-72
2023/08/01 02:40:48;;;;;;;;;;;;;;;16.00;100.00;99740.50;10446131;28;19948;-72
2023/08/01 02:45:50;;;;;;;;;;;;;;;15.90;100.00;99744.03;10463770;28;19924;-72
2023/08/01 02:50:52;;;;;;;;;;;;;;;15.98;100.00;99743.28;10446422;28;19979;-72
2023/08/01 02:55:55;;;;;;;;;;;;;;;15.94;100.00;99734.84;10463373;28;20372;-72
2023/08/01 03:00:57;;;;;;;;;;;;;;;15.95;100.00;99743.56;10463051;28;19925;-72
2023/08/01 03:05:59;;;;;;;;;;;;;;;15.82;100.00;99746.59;10463008;28;19929;-73
2023/08/01 03:11:02;;;;;;;;;;;;;;;15.91;100.00;99750.97;10462861;28;19935;-72
2023/08/01 03:16:04;;;;;;;;;;;;;;;15.87;100.00;99739.06;10444742;28;19925;-72
2023/08/01 03:21:06;;;;;;;;;;;;;;;15.75;100.00;99741.06;10462448;28;19951;-72
2023/08/01 03:26:09;;;;;;;;;;;;;;;15.65;100.00;99736.78;10462154;28;19925;-72
2023/08/01 03:31:11;;;;;;;;;;;;;;;15.63;100.00;99739.56;10444355;28;19924;-72
2023/08/01 03:36:13;;;;;;;;;;;;;;;15.74;100.00;99736.72;10427654;28;19925;-72
2023/08/01 03:41:15;;;;;;;;;;;;;;;15.63;100.00;99742.19;10461782;28;19925;-72
2023/08/01 03:46:18;;;;;;;;;;;;;;;15.77;100.00;99754.94;10461325;28;19955;-72
2023/08/01 03:51:20;;;;;;;;;;;;;;;15.72;100.00;99751.88;10461329;28;19924;-72
2023/08/01 03:56:22;;;;;;;;;;;;;;;15.75;100.00;99745.47;10460947;28;19924;-72
2023/08/01 04:01:25;;;;;;;;;;;;;;;15.94;100.00;99755.94;10460851;28;19926;-72
2023/08/01 04:06:27;;;;;;;;;;;;;;;15.77;100.00;99756.75;10460621;28;20007;-72
2023/08/01 04:11:29;;;;;;;;;;;;;;;15.87;100.00;99749.63;10460359;28;20280;-72
2023/08/01 04:16:32;;;;;;;;;;;;;;;15.82;100.00;99751.00;10460404;28;19929;-72
2023/08/01 04:21:34;;;;;;;;;;;;;;;15.77;100.00;99751.47;10459967;28;19925;-72
2023/08/01 04:26:36;;;;;;;;;;;;;;;15.71;100.00;99752.03;10459942;28;19925;-72
2023/08/01 04:31:39;;;;;;;;;;;;;;;15.63;100.00;99749.28;10442013;28;19999;-72
2023/08/01 04:36:41;;;;;;;;;;;;;;;15.73;100.00;99757.97;10441070;28;20322;-72
2023/08/01 04:41:44;;;;;;;;;;;;;;;15.67;100.00;99766.47;10459368;28;19925;-72
2023/08/01 04:46:47;;;;;;;;;;;;;;;15.89;100.00;99760.03;10458981;28;19935;-72
2023/08/01 04:51:51;;;;;;;;;;;;;;;15.69;100.00;99752.16;10441056;28;19925;-72
2023/08/01 04:56:53;;;;;;;;;;;;;;;15.75;100.00;99767.47;10440791;28;19925;-72
2023/08/01 05:01:55;;;;;;;;;;;;;;;15.92;100.00;99754.44;10458625;28;19925;-73
2023/08/01 05:06:57;;;;;;;;;;;;;;;16.02;100.00;99755.22;10440479;28;20368;-72
2023/08/01 05:12:00;;;;;;;;;;;;;;;16.03;100.00;99759.50;10465524;22;19929;-67
2023/08/01 05:17:02;;;;;;;;;;;;;;;16.05;100.00;99768.09;10457846;28;20370;-67
2023/08/01 05:22:04;;;;;;;;;;;;;;;15.97;100.00;99752.19;10457945;28;19999;-67
2023/08/01 05:27:06;;;;;;;;;;;;;;;16.27;100.00;99766.03;10458048;28;19925;-67
2023/08/01 05:32:09;;;;;;;;;;;;;;;16.40;100.00;99757.72;10457675;28;19924;-67
2023/08/01 05:37:11;;;;;;;;;;;;;;;16.29;100.00;99774.63;10457528;28;19947;-67
2023/08/01 05:42:13;;;;;;;;;;;;;;;16.32;100.00;99777.81;10457321;28;19929;-67
2023/08/01 05:47:15;;;;;;;;;;;;;;;16.01;100.00;99787.88;10439174;28;20275;-68
2023/08/01 05:52:18;;;;;;;;;;;;;;;16.08;100.00;99783.66;10456916;28;20038;-67
2023/08/01 05:57:20;;;;;;;;;;;;;;;16.45;100.00;99785.34;10456864;28;19924;-67
2023/08/01 06:02:22;;;;;;;;;;;;;;;16.25;100.00;99776.72;10456637;28;19925;-67
2023/08/01 06:07:25;;;;;;;;;;;;;;;16.67;100.00;99778.78;10456725;28;19928;-67
2023/08/01 06:12:28;;;;;;;;;;;;;;;16.71;100.00;99781.97;10456350;28;19925;-67
2023/08/01 06:17:30;;;;;;;;;;;;;;;17.17;100.00;99789.75;10439195;28;20004;-68
2023/08/01 06:22:33;;;;;;;;;;;;;;;17.15;100.00;99797.03;10456331;28;19986;-68
2023/08/01 06:27:35;;;;;;;;;;;;;;;16.85;100.00;99796.47;10456516;28;19925;-68
2023/08/01 06:32:37;;;;;;;;;;;;;;;16.74;100.00;99794.84;10456163;28;19925;-67
2023/08/01 06:37:40;;;;;;;;;;;;;;;17.01;100.00;99795.75;10438418;28;20007;-68
2023/08/01 06:42:42;;;;;;;;;;;;;;;16.89;100.00;99803.09;10456153;28;19931;-68
2023/08/01 06:47:45;;;;;;;;;;;;;;;17.17;100.00;99800.34;10455818;28;19925;-67
2023/08/01 06:52:47;;;;;;;;;;;;;;;16.85;100.00;99799.13;10456065;28;19924;-67
2023/08/01 06:57:49;;;;;;;;;;;;;;;16.75;100.00;99804.44;10455685;28;19925;-67
2023/08/01 07:02:52;;;;;;;;;;;;;;;16.84;100.00;99810.63;10460500;28;19931;-67
2023/08/01 07:07:54;;;;;;;;;;;;;;;17.12;100.00;99807.91;10463178;28;19929;-68
2023/08/01 07:12:57;;;;;;;;;;;;;;;17.37;100.00;99800.97;10445083;28;19924;-67
2023/08/01 07:17:59;;;;;;;;;;;;;;;18.04;100.00;99793.19;10462751;28;20383;-68
2023/08/01 07:23:01;;;;;;;;;;;;;;;18.55;100.00;99796.59;10444896;28;19925;-68
2023/08/01 07:28:04;;;;;;;;;;;;;;;18.12;100.00;99795.88;10444773;28;19929;-68
2023/08/01 07:33:06;;;;;;;;;;;;;;;18.50;100.00;99782.19;10462090;28;20008;-68
2023/08/01 07:38:08;;;;;;;;;;;;;;;18.33;100.00;99797.22;10462038;28;19963;-68
2023/08/01 07:43:10;;;;;;;;;;;;;;;17.58;100.00;99798.75;10444188;28;19924;-67
2023/08/01 07:48:13;;;;;;;;;;;;;;;18.80;100.00;99801.09;10427282;28;20019;-68
2023/08/01 07:53:15;;;;;;;;;;;;;;;18.30;100.00;99793.06;10461262;28;19924;-68
2023/08/01 07:58:17;;;;;;;;;;;;;;;18.47;100.00;99793.91;10461175;28;19932;-68
2023/08/01 08:03:22;;;;;;;;;;;;;;;17.68;100.00;99801.28;10443178;28;19952;-68
2023/08/01 08:08:24;;;;;;;;;;;;;;;17.34;100.00;99809.22;10460676;28;19929;-69
2023/08/01 08:13:27;;;;;;;;;;;;;;;17.17;100.00;99829.44;10459173;28;20287;-69
2023/08/01 08:18:29;;;;;;;;;;;;;;;18.90;100.00;99801.78;10442531;28;19925;-69
2023/08/01 08:23:31;;;;;;;;;;;;;;;19.65;100.00;99790.00;10460018;28;20291;-69
2023/08/01 08:28:33;;;;;;;;;;;;;;;18.64;100.00;99818.63;10459869;28;19925;-69
2023/08/01 08:33:36;;;;;;;;;;;;;;;17.79;100.00;99827.47;10442013;28;19932;-69
2023/08/01 08:38:38;;;;;;;;;;;;;;;17.81;100.00;99837.91;10459478;28;19925;-69
2023/08/01 08:43:41;;;;;;;;;;;;;;;17.59;100.00;99836.66;10441772;28;19931;-69
2023/08/01 08:48:45;;;;;;;;;;;;;;;17.70;100.00;99839.03;10441394;28;19944;-69
2023/08/01 08:53:47;;;;;;;;;;;;;;;18.01;100.00;99835.88;10425341;28;19931;-68
2023/08/01 08:58:50;;;;;;;;;;;;;;;19.79;100.00;99817.72;10441152;28;19925;-69
2023/08/01 09:03:53;;;;;;;;;;;;;;;19.74;100.00;99810.22;10458545;28;19925;-69
2023/08/01 09:08:56;;;;;;;;;;;;;;;20.64;100.00;99819.59;10458466;28;19931;-69
2023/08/01 09:13:58;;;;;;;;;;;;;;;19.70;100.00;99800.13;10440333;28;19931;-69
2023/08/01 09:19:00;;;;;;;;;;;;;;;19.08;100.00;99812.19;10440446;28;19924;-68
2023/08/01 09:24:12;;;;;;;;;;;;;;;18.77;100.00;99819.97;10457686;28;19925;-69
2023/08/01 09:29:19;;;;;;;;;;;;;;;18.45;100.00;99832.19;10440212;28;19956;-69
2023/08/01 09:34:22;;;;;;;;;;;;;;;19.84;100.00;99829.47;10423386;28;19931;-68
2023/08/01 09:39:25;;;;;;;;;;;;;;;19.80;100.00;99822.88;10440009;28;19935;-69
2023/08/01 09:44:28;;;;;;;;;;;;;;;18.84;100.00;99831.59;10439469;28;20446;-69
2023/08/01 09:49:30;;;;;;;;;;;;;;;18.93;99.27;99838.59;10439259;28;20007;-69
2023/08/01 09:54:33;;;;;;;;;;;;;;;19.46;96.07;99837.19;10457134;28;19932;-69
2023/08/01 09:59:37;;;;;;;;;;;;;;;18.57;95.88;99849.44;10439052;28;19929;-68
2023/08/01 10:04:40;;;;;;;;;;;;;;;18.52;95.74;99849.09;10456763;28;20364;-69
2023/08/01 10:09:42;;;;;;;;;;;;;;;20.97;85.30;99843.28;10438857;28;19933;-69
2023/08/01 10:14:44;;;;;;;;;;;;;;;20.63;83.27;99852.53;10438617;28;20487;-69
2023/08/01 10:19:47;;;;;;;;;;;;;;;20.59;87.37;99853.84;10438912;28;19931;-69
2023/08/01 10:24:49;;;;;;;;;;;;;;;20.44;86.71;99855.59;10422217;28;19925;-69
2023/08/01 10:29:58;;;;;;;;;;;;;;;19.77;89.14;99855.06;10438401;28;19931;-69
2023/08/01 10:35:00;;;;;;;;;;;;;;;20.32;90.30;99855.16;10438973;28;20004;-69
2023/08/01 10:40:03;;;;;;;;;;;;;;;20.89;85.25;99859.31;10430201;28;19925;-69
2023/08/01 10:45:05;;;;;;;;;;;;;;;21.02;79.32;99862.19;10463857;28;20012;-69
2023/08/01 10:50:13;;;;;;;;;;;;;;;20.22;77.96;99852.72;10463814;28;19925;-68
2023/08/01 10:55:17;;;;;;;;;;;;;;;19.10;84.57;99874.72;10446002;28;19928;-69
2023/08/01 11:00:20;;;;;;;;;;;;;;;19.34;82.08;99881.00;10463430;28;19925;-68
2023/08/01 11:05:25;;;;;;;;;;;;;;;20.35;76.46;99881.41;10463211;28;19960;-68
2023/08/01 11:10:29;;;;;;;;;;;;;;;20.42;75.80;99888.53;10462814;28;20287;-68
2023/08/01 11:15:31;;;;;;;;;;;;;;;22.49;75.33;99879.47;10428684;28;19968;-69
2023/08/01 11:20:38;;;;;;;;;;;;;;;23.08;70.44;99879.28;10444872;28;19925;-69
2023/08/01 11:25:42;;;;;;;;;;;;;;;23.89;69.12;99870.00;10445002;28;19925;-72
2023/08/01 11:30:45;;;;;;;;;;;;;;;21.41;74.92;99881.66;10428514;28;20004;-75
2023/08/01 11:35:52;;;;;;;;;;;;;;;20.29;83.85;99893.56;10444420;28;19987;-75
2023/08/01 11:40:54;;;;;;;;;;;;;;;21.93;75.76;99894.13;10462056;28;20011;-75
2023/08/01 11:45:58;;;;;;;;;;;;;;;24.14;71.23;99886.38;10461469;28;20019;-76
2023/08/01 11:51:01;;;;;;;;;;;;;;;24.60;71.37;99898.28;10427885;28;19968;-71
2023/08/01 11:56:04;;;;;;;;;;;;;;;24.93;67.68;99902.88;10443598;28;20399;-72
2023/08/01 12:01:10;;;;;;;;;;;;;;;22.69;71.20;99909.03;10460968;28;20391;-72
2023/08/01 12:06:13;;;;;;;;;;;;;;;23.38;68.15;99911.13;10443276;28;19931;-74
2023/08/01 12:11:22;;;;;;;;;;;;;;;22.89;65.17;99907.38;10442947;28;20028;-74
2023/08/01 12:16:24;;;;;;;;;;;;;;;24.23;63.53;99905.75;10460248;28;19931;-71
2023/08/01 12:21:26;;;;;;;;;;;;;;;24.92;62.11;99893.19;10442504;28;19928;-72
2023/08/01 12:26:29;;;;;;;;;;;;;;;24.22;65.39;99909.44;10460222;28;19924;-74
2023/08/01 12:31:31;;;;;;;;;;;;;;;23.80;64.99;99921.91;10441931;28;20452;-74
2023/08/01 12:36:33;;;;;;;;;;;;;;;24.96;59.71;99903.28;10442017;28;20296;-71
2023/08/01 12:41:36;;;;;;;;;;;;;;;23.29;65.91;99918.47;10459678;28;19956;-71
2023/08/01 12:46:39;;;;;;;;;;;;;;;24.54;63.87;99917.78;10459197;28;20377;-71
2023/08/01 12:51:42;;;;;;;;;;;;;;;24.36;62.20;99939.72;10459038;28;19924;-72
2023/08/01 12:56:44;;;;;;;;;;;;;;;23.93;63.53;99949.59;10458803;28;19925;-71
2023/08/01 13:01:46;;;;;;;;;;;;;;;22.39;62.93;99949.94;10458142;28;19929;-68
2023/08/01 13:06:48;;;;;;;;;;;;;;;22.14;65.99;99951.19;10440854;28;19971;-74
2023/08/01 13:11:51;;;;;;;;;;;;;;;22.68;62.93;99958.91;10457854;28;19968;-75
2023/08/01 13:16:53;;;;;;;;;;;;;;;23.12;61.86;99949.13;10440535;28;19931;-75
2023/08/01 13:21:55;;;;;;;;;;;;;;;24.57;61.19;99944.16;10457943;28;19932;-73
2023/08/01 13:26:58;;;;;;;;;;;;;;;24.82;60.91;99939.09;10440245;28;20015;-72
2023/08/01 13:32:00;;;;;;;;;;;;;;;23.22;61.48;99948.78;10439819;28;19925;-72
2023/08/01 13:37:02;;;;;;;;;;;;;;;22.02;62.56;99956.16;10457667;28;19929;-70
2023/08/01 13:42:05;;;;;;;;;;;;;;;23.65;62.37;99952.22;10457427;28;20379;-71
2023/08/01 13:47:07;;;;;;;;;;;;;;;24.42;58.42;99963.00;10457166;28;19931;-72
2023/08/01 13:52:09;;;;;;;;;;;;;;;24.33;56.97;99953.53;10456895;28;19925;-70
2023/08/01 13:57:12;;;;;;;;;;;;;;;23.99;57.86;99953.34;10439276;28;19931;-68
2023/08/01 14:02:14;;;;;;;;;;;;;;;24.38;55.00;99951.88;10456986;28;20011;-70
2023/08/01 14:07:16;;;;;;;;;;;;;;;24.88;56.63;99962.41;10439215;28;19975;-69
2023/08/01 14:12:19;;;;;;;;;;;;;;;24.21;55.96;99959.41;10460901;28;20012;-71
2023/08/01 14:17:21;;;;;;;;;;;;;;;24.94;54.36;99964.25;10465052;28;19924;-71
2023/08/01 14:22:23;;;;;;;;;;;;;;;24.89;53.93;99974.72;10464881;28;20368;-70
2023/08/01 14:27:26;;;;;;;;;;;;;;;25.53;53.48;99978.75;10447145;28;19929;-71
2023/08/01 14:32:28;;;;;;;;;;;;;;;24.88;54.94;99972.25;10446734;28;20389;-70
2023/08/01 14:37:30;;;;;;;;;;;;;;;24.85;56.53;99982.34;10464663;28;20013;-71
2023/08/01 14:42:32;;;;;;;;;;;;;;;25.20;56.18;99984.91;10464323;28;19925;-71
2023/08/01 14:47:37;;;;;;;;;;;;;;;23.08;63.42;99996.75;10463931;28;19925;-71
2023/08/01 14:52:39;;;;;;;;;;;;;;;24.24;59.87;99993.81;10463877;28;19925;-71
2023/08/01 14:57:42;;;;;;;;;;;;;;;24.81;56.32;99994.50;10446248;28;19939;-71
2023/08/01 15:02:44;;;;;;;;;;;;;;;24.16;57.14;99995.78;10463389;28;19925;-70
2023/08/01 15:07:46;;;;;;;;;;;;;;;24.42;56.25;99997.78;10463235;28;19969;-71
2023/08/01 15:12:49;;;;;;;;;;;;;;;24.89;53.51;99998.00;10462692;28;19925;-71
2023/08/01 15:17:51;;;;;;;;;;;;;;;24.84;53.16;100004.78;10463012;28;19967;-71
2023/08/01 15:22:53;;;;;;;;;;;;;;;24.46;53.46;99994.53;10462164;28;19925;-71
2023/08/01 15:27:56;;;;;;;;;;;;;;;24.58;51.57;99997.50;10462286;28;19935;-71
2023/08/01 15:32:58;;;;;;;;;;;;;;;24.54;54.88;100014.91;10462282;28;20008;-70
2023/08/01 15:38:01;;;;;;;;;;;;;;;24.00;53.90;100004.94;10461950;28;19964;-68
2023/08/01 15:43:03;;;;;;;;;;;;;;;22.86;58.42;100021.69;10444284;28;19931;-69
2023/08/01 15:48:05;;;;;;;;;;;;;;;23.63;56.44;100025.59;10461534;28;20023;-69
2023/08/01 15:53:07;;;;;;;;;;;;;;;22.59;59.51;100034.69;10443657;28;20334;-69
2023/08/01 15:58:09;;;;;;;;;;;;;;;22.30;59.09;100028.38;10461395;28;20284;-69
2023/08/01 16:03:12;;;;;;;;;;;;;;;22.80;61.48;100025.94;10461203;28;19925;-69
2023/08/01 16:08:14;;;;;;;;;;;;;;;21.51;63.37;100034.88;10460781;28;19933;-69
2023/08/01 16:13:18;;;;;;;;;;;;;;;21.61;63.30;100031.97;10460425;28;19939;-69
2023/08/01 16:18:20;;;;;;;;;;;;;;;21.46;61.18;100036.38;10442924;28;19931;-68
2023/08/01 16:23:23;;;;;;;;;;;;;;;21.73;61.13;100048.38;10426188;28;19925;-68
2023/08/01 16:28:25;;;;;;;;;;;;;;;20.25;63.87;100050.88;10442135;28;20386;-69
2023/08/01 16:33:27;;;;;;;;;;;;;;;21.11;64.87;100047.41;10458876;28;19925;-69
2023/08/01 16:38:29;;;;;;;;;;;;;;;20.99;63.34;100053.31;10459960;28;19925;-69
2023/08/01 16:43:32;;;;;;;;;;;;;;;20.76;65.27;100062.06;10459389;28;20402;-68
2023/08/01 16:48:36;;;;;;;;;;;;;;;20.20;65.86;100054.03;10440963;28;20410;-68
2023/08/01 16:53:38;;;;;;;;;;;;;;;20.14;67.65;100060.88;10459041;28;20415;-68
2023/08/01 16:58:40;;;;;;;;;;;;;;;19.91;66.80;100065.22;10458764;28;19974;-69
2023/08/01 17:03:42;;;;;;;;;;;;;;;19.88;67.45;100058.38;10441275;28;19931;-68
2023/08/01 17:08:45;;;;;;;;;;;;;;;19.63;69.02;100062.84;10440681;28;19925;-68
2023/08/01 17:13:47;;;;;;;;;;;;;;;19.57;69.77;100060.81;10457912;28;20004;-69
2023/08/01 17:18:49;;;;;;;;;;;;;;;20.05;69.10;100075.16;10458250;28;19924;-69
2023/08/01 17:23:53;;;;;;;;;;;;;;;19.97;69.04;100077.81;10457841;28;20287;-69
2023/08/01 17:28:55;;;;;;;;;;;;;;;19.86;67.97;100077.16;10455808;23;19924;-66
2023/08/01 17:33:58;;;;;;;;;;;;;;;19.87;70.33;100078.00;10457795;28;19925;-66
2023/08/01 17:39:00;;;;;;;;;;;;;;;19.57;69.31;100074.09;10457705;28;19931;-66
2023/08/01 17:44:02;;;;;;;;;;;;;;;19.56;69.47;100073.28;10457311;28;19925;-66
2023/08/01 17:49:04;;;;;;;;;;;;;;;19.52;69.48;100082.59;10457100;28;19931;-65
2023/08/01 17:54:07;;;;;;;;;;;;;;;19.47;71.05;100082.25;10456111;28;19932;-66
2023/08/01 17:59:10;;;;;;;;;;;;;;;19.46;71.27;100083.22;10456877;28;19960;-66
2023/08/01 18:04:12;;;;;;;;;;;;;;;19.52;72.12;100079.94;10456765;28;19986;-65
2023/08/01 18:09:15;;;;;;;;;;;;;;;19.37;70.88;100082.38;10456635;28;19931;-66
2023/08/01 18:14:17;;;;;;;;;;;;;;;19.08;71.71;100088.94;10456670;28;19925;-65
2023/08/01 18:19:19;;;;;;;;;;;;;;;19.36;71.75;100088.69;10455463;28;19924;-65
2023/08/01 18:24:22;;;;;;;;;;;;;;;19.27;72.37;100090.47;10456367;28;20278;-65
2023/08/01 18:29:24;;;;;;;;;;;;;;;19.18;72.93;100094.13;10456227;28;19924;-66
2023/08/01 18:34:27;;;;;;;;;;;;;;;19.10;73.47;100100.22;10456160;28;20387;-66
2023/08/01 18:39:29;;;;;;;;;;;;;;;18.96;74.08;100110.59;10456063;28;19925;-66
2023/08/01 18:44:31;;;;;;;;;;;;;;;18.98;72.72;100098.84;10455980;28;19925;-66
2023/08/01 18:49:33;;;;;;;;;;;;;;;19.14;73.10;100099.91;10455773;28;19939;-66
2023/08/01 18:54:36;;;;;;;;;;;;;;;18.72;72.60;100120.91;10455972;28;19925;-66
2023/08/01 18:59:38;;;;;;;;;;;;;;;18.82;74.12;100125.28;10461865;28;19935;-66
2023/08/01 19:04:40;;;;;;;;;;;;;;;18.65;73.80;100127.00;10463312;28;19925;-66
2023/08/01 19:09:43;;;;;;;;;;;;;;;18.70;74.33;100130.00;10463153;28;19931;-66
2023/08/01 19:14:45;;;;;;;;;;;;;;;18.62;73.62;100135.25;10462874;28;19925;-65
2023/08/01 19:19:47;;;;;;;;;;;;;;;18.85;72.70;100144.38;10462990;28;19931;-66
2023/08/01 19:24:53;;;;;;;;;;;;;;;18.83;73.76;100146.34;10462526;28;19924;-66
2023/08/01 19:29:55;;;;;;;;;;;;;;;18.88;73.55;100140.59;10462245;28;19924;-66
2023/08/01 19:34:58;;;;;;;;;;;;;;;18.73;74.14;100143.78;10462393;28;19925;-66
2023/08/01 19:40:03;;;;;;;;;;;;;;;18.69;74.29;100142.44;10462131;28;20314;-66
2023/08/01 19:45:07;;;;;;;;;;;;;;;18.67;74.77;100147.06;10461832;28;20401;-66
2023/08/01 19:50:09;;;;;;;;;;;;;;;18.77;75.97;100157.56;10461534;28;19924;-66
2023/08/01 19:55:12;;;;;;;;;;;;;;;18.63;76.17;100158.97;10461405;28;20356;-66
2023/08/01 20:00:14;;;;;;;;;;;;;;;18.65;76.61;100158.81;10461355;28;19925;-66
2023/08/01 20:05:16;;;;;;;;;;;;;;;18.52;76.40;100149.44;10461100;28;20287;-66
2023/08/01 20:10:19;;;;;;;;;;;;;;;18.53;76.71;100156.41;10460719;28;20389;-66
2023/08/01 20:15:21;;;;;;;;;;;;;;;18.11;76.70;100156.25;10459574;28;20043;-65
2023/08/01 20:20:23;;;;;;;;;;;;;;;18.23;77.07;100156.84;10460589;28;19924;-67
2023/08/01 20:25:26;;;;;;;;;;;;;;;18.36;76.68;100146.69;10460353;28;19925;-66
2023/08/01 20:30:28;;;;;;;;;;;;;;;18.47;77.19;100153.56;10459890;28;20537;-66
2023/08/01 20:35:30;;;;;;;;;;;;;;;18.41;76.76;100149.72;10458611;28;19931;-66
2023/08/01 20:40:36;;;;;;;;;;;;;;;18.19;77.71;100143.91;10459856;28;19932;-66
2023/08/01 20:45:38;;;;;;;;;;;;;;;18.16;78.33;100146.03;10459401;28;19928;-66
2023/08/01 20:50:40;;;;;;;;;;;;;;;18.15;78.36;100145.19;10459078;28;19924;-67
2023/08/01 20:55:42;;;;;;;;;;;;;;;18.24;79.74;100147.91;10459023;28;20360;-66
2023/08/01 21:00:45;;;;;;;;;;;;;;;17.82;80.95;100146.72;10458883;28;19931;-66
2023/08/01 21:05:48;;;;;;;;;;;;;;;17.62;83.65;100140.72;10457320;28;20415;-66
2023/08/01 21:10:50;;;;;;;;;;;;;;;17.48;85.80;100141.22;10458349;28;20260;-67
2023/08/01 21:15:52;;;;;;;;;;;;;;;17.29;87.39;100144.81;10458514;28;19924;-67
2023/08/01 21:20:54;;;;;;;;;;;;;;;17.11;89.42;100145.56;10456682;28;19971;-66
2023/08/01 21:25:57;;;;;;;;;;;;;;;17.07;90.97;100141.56;10457743;28;20015;-67
2023/08/01 21:30:59;;;;;;;;;;;;;;;16.62;96.95;100140.44;10457903;28;19928;-66
2023/08/01 21:36:01;;;;;;;;;;;;;;;16.38;100.00;100134.81;10457710;28;20024;-66
2023/08/01 21:41:06;;;;;;;;;;;;;;;16.37;100.00;100136.59;10456486;28;19924;-66
2023/08/01 21:46:08;;;;;;;;;;;;;;;16.44;100.00;100142.16;10457374;28;19933;-66
2023/08/01 21:51:10;;;;;;;;;;;;;;;16.15;100.00;100143.88;10457082;28;20390;-66
2023/08/01 21:56:12;;;;;;;;;;;;;;;16.01;100.00;100144.28;10457000;28;20012;-66
2023/08/01 22:01:15;;;;;;;;;;;;;;;15.92;100.00;100134.53;10456795;28;20383;-67
2023/08/01 22:06:18;;;;;;;;;;;;;;;15.89;100.00;100140.13;10457004;28;19925;-66
2023/08/01 22:11:21;;;;;;;;;;;;;;;15.86;100.00;100129.84;10456550;28;20338;-66
2023/08/01 22:16:23;;;;;;;;;;;;;;;15.62;100.00;100133.69;10456832;28;19931;-66
2023/08/01 22:21:25;;;;;;;;;;;;;;;15.69;100.00;100124.22;10456665;28;19929;-66
2023/08/01 22:26:27;;;;;;;;;;;;;;;15.47;100.00;100125.31;10455949;28;19931;-66
2023/08/01 22:31:32;;;;;;;;;;;;;;;15.60;100.00;100125.03;10457957;28;19924;-66
2023/08/01 22:36:35;;;;;;;;;;;;;;;15.56;100.00;100128.94;10464445;28;20287;-66
2023/08/01 22:41:37;;;;;;;;;;;;;;;15.47;100.00;100141.16;10464597;28;19931;-66
2023/08/01 22:46:39;;;;;;;;;;;;;;;15.58;100.00;100137.53;10464158;28;19929;-66
2023/08/01 22:51:43;;;;;;;;;;;;;;;15.58;100.00;100127.84;10464137;28;19978;-66
2023/08/01 22:56:45;;;;;;;;;;;;;;;15.51;100.00;100141.69;10463909;28;19925;-66
2023/08/01 23:01:47;;;;;;;;;;;;;;;15.57;100.00;100128.81;10463582;28;19932;-67
2023/08/01 23:06:49;;;;;;;;;;;;;;;15.47;100.00;100121.84;10462320;28;20397;-66
2023/08/01 23:11:52;;;;;;;;;;;;;;;15.39;100.00;100120.72;10463160;28;19978;-66
2023/08/01 23:16:54;;;;;;;;;;;;;;;15.47;100.00;100103.41;10463172;28;19931;-66
2023/08/01 23:21:56;;;;;;;;;;;;;;;15.59;100.00;100081.19;10462927;28;19978;-66
2023/08/01 23:26:58;;;;;;;;;;;;;;;15.48;100.00;100087.41;10462291;28;19929;-67
2023/08/01 23:32:01;;;;;;;;;;;;;;;15.25;100.00;100076.28;10462689;28;20008;-66
2023/08/01 23:37:03;;;;;;;;;;;;;;;15.19;100.00;100068.91;10462590;28;20378;-66
2023/08/01 23:42:05;;;;;;;;;;;;;;;15.22;100.00;100066.81;10461810;28;19924;-66
2023/08/01 23:47:08;;;;;;;;;;;;;;;15.20;100.00;100057.41;10461678;28;20422;-66
2023/08/01 23:52:10;;;;;;;;;;;;;;;15.22;100.00;100053.63;10461723;28;19924;-66
2023/08/01 23:57:12;;;;;;;;;;;;;;;15.10;100.00;100046.81;10461302;28;20361;-66
